Time;durP1;ratioP1;P1;durP2;ratioP2;P2;SDS_P1;SDS_P2;PMS_P1;PMS_P2;Temp;Humidity;BMP_temperature;BMP_pressure;BME280_temperature;BME280_humidity;BME280_pressure;Samples;Min_cycle;Max_cycle;Signal;HPM_P1;HPM_P2
2022/07/07 00:01:49;;;;;;;14.52;8.63;;;;;;;17.44;100.00;102021.38;5008465;28;20360;-49
2022/07/07 00:04:14;;;;;;;16.65;8.15;;;;;;;17.47;100.00;102018.31;4999836;28;20433;-47
2022/07/07 00:06:39;;;;;;;15.63;8.23;;;;;;;17.47;100.00;102013.75;5002643;28;20033;-47
2022/07/07 00:09:05;;;;;;;14.77;7.90;;;;;;;17.47;100.00;102011.03;5005597;28;20053;-50
2022/07/07 00:11:31;;;;;;;16.65;7.93;;;;;;;17.49;100.00;102008.16;5005828;28;20021;-46
2022/07/07 00:13:57;;;;;;;13.45;8.35;;;;;;;17.53;100.00;102009.47;5014732;28;20489;-50
2022/07/07 00:16:24;;;;;;;12.73;7.85;;;;;;;17.50;100.00;102001.75;5000202;28;20602;-50
2022/07/07 00:18:50;;;;;;;12.77;8.05;;;;;;;17.55;100.00;102003.91;5002966;28;20029;-50
2022/07/07 00:21:15;;;;;;;11.68;8.10;;;;;;;17.52;100.00;101997.84;4977234;28;20389;-47
2022/07/07 00:23:41;;;;;;;14.65;8.15;;;;;;;17.51;100.00;101996.19;5013673;28;20029;-49
2022/07/07 00:26:06;;;;;;;14.95;8.48;;;;;;;17.51;100.00;101984.50;4998200;28;20115;-51
2022/07/07 00:28:32;;;;;;;12.68;8.18;;;;;;;17.48;100.00;101977.63;5001288;28;20072;-46
2022/07/07 00:30:58;;;;;;;15.80;8.65;;;;;;;17.50;100.00;101972.88;5006312;28;20068;-50
2022/07/07 00:33:23;;;;;;;16.10;8.57;;;;;;;17.49;100.00;101967.66;5011047;28;20518;-50
2022/07/07 00:35:48;;;;;;;15.95;8.63;;;;;;;17.49;100.00;101963.09;5014578;28;20033;-48
2022/07/07 00:38:14;;;;;;;15.20;8.27;;;;;;;17.50;100.00;101978.28;4998904;28;20028;-47
2022/07/07 00:40:39;;;;;;;15.45;8.52;;;;;;;17.50;100.00;101972.88;5002749;28;20061;-47
2022/07/07 00:43:04;;;;;;;14.65;8.57;;;;;;;17.51;100.00;101965.63;5011238;28;20029;-48
2022/07/07 00:45:30;;;;;;;15.82;8.10;;;;;;;17.52;100.00;101978.09;5017046;28;20560;-49
2022/07/07 00:47:56;;;;;;;16.42;8.50;;;;;;;17.54;100.00;101959.84;5018044;28;20156;-49
2022/07/07 00:50:21;;;;;;;13.50;8.23;;;;;;;17.51;100.00;101957.50;5003724;28;20108;-49
2022/07/07 00:52:47;;;;;;;12.05;8.15;;;;;;;17.51;100.00;101955.66;5006775;28;20511;-50
2022/07/07 00:55:13;;;;;;;12.63;7.90;;;;;;;17.50;100.00;101935.06;5013120;28;20472;-51
2022/07/07 00:57:39;;;;;;;12.60;8.20;;;;;;;17.50;100.00;101942.34;5016144;28;20029;-50
2022/07/07 01:00:08;;;;;;;13.93;7.82;;;;;;;17.47;100.00;101945.41;5003870;28;20298;-47
2022/07/07 01:02:34;;;;;;;12.52;7.80;;;;;;;17.48;100.00;101949.75;5013681;28;20091;-47
2022/07/07 01:05:02;;;;;;;11.00;7.85;;;;;;;17.49;100.00;101946.06;5003744;28;20319;-49
2022/07/07 01:07:29;;;;;;;17.15;7.65;;;;;;;17.48;100.00;101955.16;4992478;28;20022;-49
2022/07/07 01:09:57;;;;;;;17.20;7.88;;;;;;;17.46;100.00;101949.94;5011986;28;20064;-47
2022/07/07 01:12:22;;;;;;;13.80;7.70;;;;;;;17.47;100.00;101954.31;5015163;28;20021;-47
2022/07/07 01:14:47;;;;;;;14.27;7.07;;;;;;;17.47;100.00;101951.63;5012152;28;20131;-48
2022/07/07 01:17:13;;;;;;;11.85;7.10;;;;;;;17.49;100.00;101960.38;4982671;28;20041;-49
2022/07/07 01:19:38;;;;;;;10.57;6.43;;;;;;;17.50;100.00;101955.84;5012098;28;20025;-48
2022/07/07 01:22:10;;;;;;;12.75;6.60;;;;;;;17.49;100.00;101949.59;5013417;28;20306;-47
2022/07/07 01:24:35;;;;;;;13.88;6.47;;;;;;;17.52;100.00;101946.53;4985484;28;20108;-49
2022/07/07 01:27:18;;;;;;;14.40;6.38;;;;;;;17.54;100.00;101943.66;5000384;28;20130;-47
2022/07/07 01:29:53;;;;;;;12.25;5.95;;;;;;;17.56;100.00;101946.16;5001096;28;20045;-49
2022/07/07 01:32:19;;;;;;;11.23;5.47;;;;;;;17.53;100.00;101933.84;5002777;28;20021;-49
2022/07/07 01:34:46;;;;;;;11.82;6.25;;;;;;;17.52;100.00;101930.31;4999986;28;20488;-47
2022/07/07 01:37:12;;;;;;;12.32;5.72;;;;;;;17.55;100.00;101928.28;4989365;28;20377;-51
2022/07/07 01:39:40;;;;;;;12.73;5.70;;;;;;;17.53;100.00;101917.66;5005259;28;20099;-50
2022/07/07 01:42:06;;;;;;;12.48;5.45;;;;;;;17.56;100.00;101924.56;5007902;28;20482;-49
2022/07/07 01:44:37;;;;;;;11.50;5.80;;;;;;;17.59;100.00;101922.34;5012101;28;20047;-50
2022/07/07 01:47:03;;;;;;;6.53;4.53;;;;;;;17.60;100.00;101920.47;5018626;28;20024;-47
2022/07/07 01:49:30;;;;;;;10.30;4.75;;;;;;;17.62;100.00;101913.03;4983012;28;20045;-46
2022/07/07 01:51:56;;;;;;;7.35;4.45;;;;;;;17.63;100.00;101912.84;5007799;28;20097;-46
2022/07/07 01:54:22;;;;;;;9.85;4.95;;;;;;;17.63;100.00;101915.53;5006987;28;20033;-48
2022/07/07 01:56:47;;;;;;;9.80;4.50;;;;;;;17.66;100.00;101915.19;5014930;28;20040;-46
2022/07/07 01:59:13;;;;;;;8.20;4.10;;;;;;;17.68;100.00;101912.28;5006789;28;20017;-47
2022/07/07 02:01:39;;;;;;;9.63;3.72;;;;;;;17.69;100.00;101908.59;4980338;28;20030;-47
2022/07/07 02:04:04;;;;;;;9.40;3.92;;;;;;;17.73;100.00;101909.06;5003220;28;20029;-47
2022/07/07 02:06:30;;;;;;;8.10;4.22;;;;;;;17.75;100.00;101901.59;5004999;28;20244;-45
2022/07/07 02:08:55;;;;;;;13.90;4.22;;;;;;;17.75;100.00;101902.44;5009234;28;20063;-45
2022/07/07 02:11:20;;;;;;;7.28;3.80;;;;;;;17.77;100.00;101913.94;5013969;28;20110;-51
2022/07/07 02:13:51;;;;;;;6.50;3.97;;;;;;;17.78;100.00;101914.75;5017554;28;20495;-50
2022/07/07 02:16:19;;;;;;;5.80;3.60;;;;;;;17.79;100.00;101913.75;4984993;28;20412;-49
2022/07/07 02:18:46;;;;;;;6.43;3.45;;;;;;;17.80;100.00;101905.44;5000788;28;20417;-52
2022/07/07 02:21:12;;;;;;;10.05;3.30;;;;;;;17.85;100.00;101907.59;4998868;28;20032;-50
2022/07/07 02:23:41;;;;;;;10.10;3.60;;;;;;;17.84;100.00;101906.75;4980120;28;20654;-51
2022/07/07 02:26:06;;;;;;;6.88;3.50;;;;;;;17.85;100.00;101904.88;4995893;28;20038;-52
2022/07/07 02:28:32;;;;;;;8.18;3.45;;;;;;;17.84;100.00;101901.34;4998296;28;20112;-50
2022/07/07 02:30:58;;;;;;;8.63;3.83;;;;;;;17.84;100.00;101903.22;4998383;28;20488;-51
2022/07/07 02:33:24;;;;;;;7.50;3.20;;;;;;;17.84;100.00;101909.47;4997299;28;20041;-50
2022/07/07 02:35:50;;;;;;;9.32;3.20;;;;;;;17.84;100.00;101906.75;4998591;28;20085;-48
2022/07/07 02:38:16;;;;;;;7.25;3.08;;;;;;;17.84;100.00;101904.06;4979671;28;20223;-49
2022/07/07 02:40:41;;;;;;;7.85;2.65;;;;;;;17.82;100.00;101908.81;4978554;28;20026;-52
2022/07/07 02:43:07;;;;;;;8.38;2.67;;;;;;;17.81;100.00;101909.81;4997049;28;20018;-49
2022/07/07 02:45:33;;;;;;;4.60;2.25;;;;;;;17.77;100.00;101922.03;4980366;28;20034;-51
2022/07/07 02:47:58;;;;;;;6.68;2.60;;;;;;;17.80;100.00;101921.63;4979651;28;20289;-50
2022/07/07 02:50:23;;;;;;;5.95;2.25;;;;;;;17.76;100.00;101912.22;4997342;28;20057;-49
2022/07/07 02:52:49;;;;;;;8.70;2.38;;;;;;;17.76;100.00;101916.81;4996372;28;20449;-52
2022/07/07 02:55:14;;;;;;;5.07;1.65;;;;;;;17.75;100.00;101925.91;4997012;28;20044;-51
2022/07/07 02:57:39;;;;;;;4.18;1.80;;;;;;;17.75;100.00;101925.91;4996448;28;20096;-50
2022/07/07 03:00:07;;;;;;;3.85;1.55;;;;;;;17.71;100.00;101920.88;4996043;28;20080;-51
2022/07/07 03:02:32;;;;;;;4.00;1.50;;;;;;;17.68;100.00;101918.56;5005681;28;20018;-48
2022/07/07 03:04:57;;;;;;;4.93;1.70;;;;;;;17.65;100.00;101916.22;4996971;28;20040;-51
2022/07/07 03:07:22;;;;;;;3.30;1.58;;;;;;;17.59;100.00;101930.44;4987648;28;20034;-52
2022/07/07 03:09:48;;;;;;;8.02;1.80;;;;;;;17.57;100.00;101924.38;4996069;28;20026;-51
2022/07/07 03:12:13;;;;;;;6.38;1.60;;;;;;;17.54;100.00;101924.75;4996356;28;20041;-50
2022/07/07 03:14:39;;;;;;;2.83;1.40;;;;;;;17.48;100.00;101929.00;4996540;28;20124;-51
2022/07/07 03:17:04;;;;;;;3.65;1.60;;;;;;;17.41;100.00;101928.03;4995382;28;20437;-51
2022/07/07 03:19:29;;;;;;;5.55;1.65;;;;;;;17.26;100.00;101922.59;4996735;28;20105;-47
2022/07/07 03:21:55;;;;;;;3.70;1.80;;;;;;;17.16;100.00;101927.38;4997211;28;20072;-49
2022/07/07 03:24:20;;;;;;;5.70;1.83;;;;;;;17.09;100.00;101924.56;4996219;28;20057;-52
2022/07/07 03:26:45;;;;;;;3.55;1.70;;;;;;;17.00;100.00;101917.50;4995452;28;20116;-52
2022/07/07 03:29:11;;;;;;;4.82;1.92;;;;;;;16.89;100.00;101929.53;4996210;28;20099;-51
2022/07/07 03:31:36;;;;;;;8.20;1.95;;;;;;;16.88;100.00;101922.44;4996448;28;20028;-53
2022/07/07 03:34:01;;;;;;;7.65;1.70;;;;;;;16.79;100.00;101915.41;4996859;28;20084;-49
2022/07/07 03:36:27;;;;;;;4.65;1.60;;;;;;;16.76;100.00;101915.75;4995549;28;20112;-52
2022/07/07 03:38:52;;;;;;;8.68;1.77;;;;;;;16.70;100.00;101911.03;4996007;28;20022;-52
2022/07/07 03:41:17;;;;;;;2.92;1.60;;;;;;;16.65;100.00;101916.13;4995509;28;20345;-51
2022/07/07 03:43:42;;;;;;;3.35;1.73;;;;;;;16.60;100.00;101914.81;4996296;28;20497;-51
2022/07/07 03:46:08;;;;;;;2.72;1.73;;;;;;;16.60;100.00;101925.59;4995792;28;20026;-51
2022/07/07 03:48:33;;;;;;;3.47;2.00;;;;;;;16.56;100.00;101915.31;4998791;28;20048;-52
2022/07/07 03:50:58;;;;;;;5.82;2.28;;;;;;;16.58;100.00;101910.59;4996969;28;20026;-51
2022/07/07 03:53:24;;;;;;;4.97;2.03;;;;;;;16.56;100.00;101918.00;4995161;28;20057;-50
2022/07/07 03:55:49;;;;;;;4.03;1.90;;;;;;;16.53;100.00;101904.88;4995301;28;20056;-52
2022/07/07 03:58:15;;;;;;;4.15;2.00;;;;;;;16.51;100.00;101917.69;4995887;28;20116;-50
2022/07/07 04:00:40;;;;;;;4.13;2.00;;;;;;;16.48;100.00;101915.34;5005166;28;20380;-50
2022/07/07 04:03:06;;;;;;;3.83;2.13;;;;;;;16.48;100.00;101915.34;4995860;28;20121;-48
2022/07/07 04:05:31;;;;;;;3.72;2.30;;;;;;;16.49;100.00;101909.78;4996136;28;20108;-50
2022/07/07 04:07:56;;;;;;;3.63;2.20;;;;;;;16.53;100.00;101904.88;4971899;28;20018;-50
2022/07/07 04:10:21;;;;;;;4.35;2.30;;;;;;;16.52;100.00;101889.72;4997635;28;20026;-51
2022/07/07 04:12:47;;;;;;;2.92;2.10;;;;;;;16.51;100.00;101888.88;5008713;28;20369;-51
2022/07/07 04:15:12;;;;;;;5.88;2.42;;;;;;;16.47;100.00;101892.09;5008118;28;20033;-51
2022/07/07 04:17:37;;;;;;;4.03;2.28;;;;;;;16.49;100.00;101892.75;5001348;28;20030;-51
2022/07/07 04:20:04;;;;;;;6.25;2.30;;;;;;;16.46;100.00;101895.81;5004165;28;20539;-51
2022/07/07 04:22:30;;;;;;;3.80;2.17;;;;;;;16.49;100.00;101903.56;5013693;28;20508;-49
2022/07/07 04:24:55;;;;;;;6.03;2.70;;;;;;;16.44;100.00;101892.44;5003604;28;20151;-50
2022/07/07 04:27:21;;;;;;;6.18;2.95;;;;;;;16.37;100.00;101901.22;5005791;28;20507;-50
2022/07/07 04:29:47;;;;;;;5.80;2.65;;;;;;;16.36;100.00;101904.09;5007402;28;20087;-50
2022/07/07 04:32:12;;;;;;;3.88;2.33;;;;;;;16.22;100.00;101909.22;5011940;28;20511;-52
2022/07/07 04:34:37;;;;;;;7.30;2.67;;;;;;;16.20;100.00;101924.69;5012361;28;20025;-49
2022/07/07 04:37:03;;;;;;;4.32;2.78;;;;;;;16.11;100.00;101924.91;5011994;28;20009;-50
2022/07/07 04:39:29;;;;;;;5.25;2.70;;;;;;;16.12;100.00;101927.41;5013439;28;20030;-49
2022/07/07 04:41:54;;;;;;;7.40;2.70;;;;;;;16.06;100.00;101936.19;5011888;28;20060;-49
2022/07/07 04:44:19;;;;;;;3.22;1.85;;;;;;;16.00;100.00;101935.03;5013572;28;20037;-49
2022/07/07 04:46:44;;;;;;;4.28;2.05;;;;;;;15.95;100.00;101939.22;5014321;28;20079;-49
2022/07/07 04:49:10;;;;;;;9.43;2.13;;;;;;;15.93;100.00;101935.84;5009759;28;20185;-49
2022/07/07 04:51:35;;;;;;;5.85;2.20;;;;;;;15.94;100.00;101940.25;5012865;28;20456;-50
2022/07/07 04:54:00;;;;;;;6.43;2.35;;;;;;;15.97;100.00;101935.34;5010579;28;20022;-47
2022/07/07 04:56:26;;;;;;;6.55;2.17;;;;;;;16.01;100.00;101935.84;4993559;28;20101;-50
2022/07/07 04:58:51;;;;;;;5.53;1.83;;;;;;;16.03;100.00;101939.22;5012538;28;20111;-52
2022/07/07 05:01:17;;;;;;;5.20;1.90;;;;;;;16.06;100.00;101946.13;5004137;28;20554;-52
2022/07/07 05:03:42;;;;;;;3.30;1.83;;;;;;;16.12;100.00;101938.19;5014172;28;20024;-50
2022/07/07 05:06:08;;;;;;;8.25;1.80;;;;;;;16.09;100.00;101948.47;5008720;28;20066;-51
2022/07/07 05:08:33;;;;;;;7.00;1.70;;;;;;;16.07;100.00;101945.94;5012144;28;20294;-50
2022/07/07 05:10:59;;;;;;;4.68;1.33;;;;;;;16.01;100.00;101954.72;5010052;28;20433;-51
2022/07/07 05:13:24;;;;;;;7.28;1.60;;;;;;;15.96;100.00;101955.22;5011236;28;20418;-51
2022/07/07 05:15:49;;;;;;;6.75;1.60;;;;;;;15.97;100.00;101950.66;5013146;28;20035;-50
2022/07/07 05:18:15;;;;;;;8.95;1.40;;;;;;;15.99;100.00;101971.03;5011071;28;20048;-50
2022/07/07 05:20:40;;;;;;;7.88;1.60;;;;;;;16.03;100.00;101971.53;5013778;28;20040;-52
2022/07/07 05:23:06;;;;;;;6.43;1.30;;;;;;;16.04;100.00;101975.94;5008632;28;20513;-51
2022/07/07 05:25:31;;;;;;;5.18;1.50;;;;;;;16.01;100.00;101973.56;5011311;28;20119;-50
2022/07/07 05:27:56;;;;;;;8.02;1.60;;;;;;;16.06;100.00;101965.00;5013310;28;20322;-52
2022/07/07 05:30:21;;;;;;;6.13;1.40;;;;;;;16.11;100.00;101974.25;5016634;28;20041;-52
2022/07/07 05:32:47;;;;;;;7.60;1.63;;;;;;;16.11;100.00;101968.03;5014768;28;20059;-52
2022/07/07 05:35:12;;;;;;;6.40;1.38;;;;;;;16.07;100.00;101969.34;5012740;28;20407;-55
2022/07/07 05:37:40;;;;;;;7.13;1.60;;;;;;;16.14;100.00;101976.59;5016284;28;20031;-52
2022/07/07 05:40:07;;;;;;;8.93;1.52;;;;;;;16.09;100.00;101980.78;5000130;28;20032;-51
2022/07/07 05:42:32;;;;;;;6.97;1.88;;;;;;;16.15;100.00;101991.75;4999132;28;20065;-48
2022/07/07 05:44:58;;;;;;;5.85;1.40;;;;;;;16.23;100.00;101991.72;4998286;28;20436;-49
2022/07/07 05:47:23;;;;;;;4.63;1.20;;;;;;;16.19;100.00;102009.28;5004586;28;20037;-51
2022/07/07 05:49:48;;;;;;;6.57;1.45;;;;;;;16.06;100.00;102010.81;4997051;28;20026;-52
2022/07/07 05:52:14;;;;;;;8.68;1.70;;;;;;;15.90;100.00;102015.16;5011673;28;20536;-51
2022/07/07 05:54:39;;;;;;;9.93;1.58;;;;;;;15.88;100.00;102014.47;4997961;28;20068;-52
2022/07/07 05:57:06;;;;;;;10.35;1.70;;;;;;;15.92;100.00;102010.47;4996835;28;20018;-48
2022/07/07 05:59:31;;;;;;;7.30;1.55;;;;;;;16.02;100.00;102016.53;4980468;28;20458;-51
2022/07/07 06:01:57;;;;;;;7.88;1.50;;;;;;;16.12;100.00;102028.97;5017115;28;20030;-48
2022/07/07 06:04:23;;;;;;;12.73;2.13;;;;;;;16.22;100.00;102032.34;4998044;28;20048;-47
2022/07/07 06:06:48;;;;;;;10.20;1.63;;;;;;;16.32;100.00;102030.31;4998227;28;20535;-51
2022/07/07 06:09:14;;;;;;;11.55;1.83;;;;;;;16.41;100.00;102037.38;4997235;28;20277;-49
2022/07/07 06:11:39;;;;;;;9.85;1.98;;;;;;;16.47;100.00;102037.72;5008262;28;20026;-47
2022/07/07 06:14:04;;;;;;;15.05;1.70;;;;;;;16.46;100.00;102047.63;5013050;28;20036;-50
2022/07/07 06:16:39;;;;;;;12.35;1.80;;;;;;;16.47;100.00;102052.03;5014949;28;20028;-48
2022/07/07 06:19:12;;;;;;;12.32;1.50;;;;;;;16.50;100.00;102058.97;5014746;28;20087;-48
2022/07/07 06:21:39;;;;;;;12.50;1.80;;;;;;;16.49;100.00;102051.88;5011698;28;20032;-46
2022/07/07 06:24:05;;;;;;;14.85;1.90;;;;;;;16.50;100.00;102062.47;5015608;28;20527;-47
2022/07/07 06:26:30;;;;;;;8.75;1.38;;;;;;;16.53;100.00;102070.25;4999153;28;20076;-52
2022/07/07 06:28:56;;;;;;;14.15;1.83;;;;;;;16.52;100.00;102073.94;4996366;28;20352;-50
2022/07/07 06:31:22;;;;;;;14.55;1.60;;;;;;;16.54;100.00;102077.31;5014156;28;20030;-50
2022/07/07 06:33:47;;;;;;;9.55;1.55;;;;;;;16.55;100.00;102080.84;5016381;28;20033;-50
2022/07/07 06:36:12;;;;;;;9.23;1.60;;;;;;;16.67;100.00;102068.69;5013843;28;20037;-51
2022/07/07 06:38:38;;;;;;;11.27;2.25;;;;;;;16.61;100.00;102082.84;4976792;28;20022;-50
2022/07/07 06:41:03;;;;;;;11.35;1.95;;;;;;;16.62;100.00;102087.25;4988094;28;20053;-51
2022/07/07 06:43:29;;;;;;;9.63;1.67;;;;;;;16.53;100.00;102102.59;5011840;28;20033;-49
2022/07/07 06:45:54;;;;;;;17.27;1.52;;;;;;;16.50;100.00;102100.25;5014801;28;20021;-47
2022/07/07 06:48:20;;;;;;;7.32;1.25;;;;;;;16.36;100.00;102104.47;5014681;28;20334;-50
2022/07/07 06:50:45;;;;;;;10.38;1.40;;;;;;;16.36;100.00;102096.38;5011543;28;20323;-51
2022/07/07 06:53:11;;;;;;;6.20;1.10;;;;;;;16.31;100.00;102101.44;5000622;28;20813;-50
2022/07/07 06:55:37;;;;;;;7.47;1.02;;;;;;;16.13;100.00;102108.81;4986812;28;20322;-51
2022/07/07 06:58:02;;;;;;;6.53;1.00;;;;;;;16.11;100.00;102108.16;5007281;28;20018;-49
2022/07/07 07:00:28;;;;;;;10.23;1.30;;;;;;;16.35;100.00;102107.31;4994756;28;20014;-49
2022/07/07 07:02:54;;;;;;;6.03;0.80;;;;;;;16.50;100.00;102112.88;5015518;28;20060;-47
2022/07/07 07:05:19;;;;;;;4.20;0.80;;;;;;;16.50;100.00;102105.63;5015782;28;20021;-50
2022/07/07 07:07:44;;;;;;;8.27;0.98;;;;;;;16.63;100.00;102110.50;5011224;28;20017;-50
2022/07/07 07:10:10;;;;;;;9.30;1.20;;;;;;;16.86;100.00;102107.97;5014360;28;20083;-52
2022/07/07 07:12:35;;;;;;;6.68;1.17;;;;;;;17.11;100.00;102114.16;5013568;28;20425;-48
2022/07/07 07:15:01;;;;;;;6.57;1.05;;;;;;;17.26;100.00;102100.78;5016240;28;20045;-50
2022/07/07 07:17:26;;;;;;;8.55;1.10;;;;;;;17.50;100.00;102110.63;5015223;28;20120;-46
2022/07/07 07:19:52;;;;;;;9.25;1.27;;;;;;;17.75;100.00;102124.00;4995365;28;20104;-45
2022/07/07 07:22:17;;;;;;;6.55;1.00;;;;;;;17.83;100.00;102115.84;5017512;28;20028;-46
2022/07/07 07:24:43;;;;;;;7.13;1.05;;;;;;;17.74;100.00;102122.34;5011142;28;20440;-45
2022/07/07 07:27:08;;;;;;;8.55;1.50;;;;;;;17.52;100.00;102130.19;5014085;28;20037;-50
2022/07/07 07:29:33;;;;;;;7.70;1.42;;;;;;;17.41;100.00;102118.94;4995246;28;20388;-48
2022/07/07 07:31:59;;;;;;;5.30;1.10;;;;;;;17.48;100.00;102134.28;4997509;28;20051;-50
2022/07/07 07:34:24;;;;;;;8.20;1.10;;;;;;;17.57;100.00;102143.19;4996136;28;20099;-49
2022/07/07 07:36:49;;;;;;;9.20;1.10;;;;;;;17.58;100.00;102144.03;4996271;28;20026;-50
2022/07/07 07:39:15;;;;;;;6.68;1.10;;;;;;;17.62;100.00;102145.38;4995335;28;20311;-48
2022/07/07 07:41:40;;;;;;;6.80;1.20;;;;;;;17.51;100.00;102155.53;4995301;28;20022;-50
2022/07/07 07:44:05;;;;;;;8.30;1.17;;;;;;;17.75;100.00;102147.50;4995995;28;20022;-49
2022/07/07 07:46:31;;;;;;;7.30;1.20;;;;;;;17.91;100.00;102154.72;4996652;28;20028;-50
2022/07/07 07:48:58;;;;;;;5.30;1.10;;;;;;;18.02;100.00;102157.00;4996098;28;20613;-50
2022/07/07 07:51:23;;;;;;;12.90;1.33;;;;;;;17.85;100.00;102145.41;4996018;28;20413;-51
2022/07/07 07:53:48;;;;;;;6.35;1.45;;;;;;;17.64;100.00;102167.66;4996237;28;20037;-52
2022/07/07 07:56:14;;;;;;;7.50;1.17;;;;;;;17.41;100.00;102168.38;5007630;28;20072;-52
2022/07/07 07:58:39;;;;;;;6.03;0.90;;;;;;;17.22;100.00;102171.50;5013350;28;20104;-51
2022/07/07 08:01:04;;;;;;;3.13;0.70;;;;;;;17.09;100.00;102167.47;4996147;28;20558;-52
2022/07/07 08:03:30;;;;;;;5.65;0.90;;;;;;;17.09;100.00;102170.19;4996017;28;20056;-52
2022/07/07 08:05:55;;;;;;;4.00;0.77;;;;;;;17.04;100.00;102163.59;4996546;28;20038;-51
2022/07/07 08:08:20;;;;;;;2.78;0.57;;;;;;;16.98;100.00;102167.81;4998421;28;20132;-52
2022/07/07 08:10:46;;;;;;;8.48;1.23;;;;;;;17.00;100.00;102167.66;5010460;28;20035;-52
2022/07/07 08:13:11;;;;;;;4.47;0.80;;;;;;;17.04;100.00;102172.56;4995509;28;20022;-52
2022/07/07 08:15:37;;;;;;;5.13;0.82;;;;;;;17.02;100.00;102179.13;4994941;28;20058;-53
2022/07/07 08:18:03;;;;;;;5.32;0.98;;;;;;;17.03;100.00;102178.13;4996079;28;20475;-52
2022/07/07 08:20:29;;;;;;;9.43;0.95;;;;;;;16.88;100.00;102183.34;4996210;28;20456;-52
2022/07/07 08:22:54;;;;;;;6.28;1.00;;;;;;;16.90;100.00;102190.25;4996545;28;20140;-53
2022/07/07 08:25:20;;;;;;;3.13;0.70;;;;;;;17.02;100.00;102190.75;4994831;28;20081;-50
2022/07/07 08:27:45;;;;;;;5.15;0.73;;;;;;;17.20;100.00;102187.03;4995105;28;20482;-52
2022/07/07 08:30:11;;;;;;;4.85;0.90;;;;;;;17.27;100.00;102188.84;5004917;28;20034;-52
2022/07/07 08:32:37;;;;;;;4.03;0.70;;;;;;;17.38;100.00;102187.66;5000598;28;20026;-53
2022/07/07 08:35:03;;;;;;;5.82;0.88;;;;;;;17.52;100.00;102191.50;4999273;28;20539;-51
2022/07/07 08:37:28;;;;;;;5.40;0.80;;;;;;;17.55;100.00;102193.00;5012511;28;20037;-52
2022/07/07 08:39:53;;;;;;;7.97;1.08;;;;;;;17.51;100.00;102193.38;5000325;28;20026;-52
2022/07/07 08:42:19;;;;;;;7.57;0.82;;;;;;;17.66;100.00;102195.31;4995950;28;20424;-54
2022/07/07 08:44:44;;;;;;;6.10;1.15;;;;;;;17.91;100.00;102189.84;4995195;28;20096;-51
2022/07/07 08:47:09;;;;;;;6.38;0.80;;;;;;;18.20;100.00;102181.06;4994963;28;20060;-52
2022/07/07 08:49:35;;;;;;;5.88;0.80;;;;;;;18.64;100.00;102180.41;4993361;28;20451;-51
2022/07/07 08:52:01;;;;;;;5.88;0.88;;;;;;;18.94;100.00;102180.47;4995445;28;20036;-52
2022/07/07 08:54:26;;;;;;;6.60;1.13;;;;;;;19.14;98.20;102181.63;4994872;28;20026;-51
2022/07/07 08:56:53;;;;;;;7.15;1.10;;;;;;;19.14;99.51;102191.63;4994152;28;20384;-52
2022/07/07 08:59:19;;;;;;;4.90;0.82;;;;;;;18.66;98.38;102201.88;4976542;28;20026;-52
2022/07/07 09:01:59;;;;;;;7.25;1.27;;;;;;;18.21;100.00;102215.16;4997355;28;20014;-52
2022/07/07 09:04:25;;;;;;;7.68;1.00;;;;;;;17.81;100.00;102223.28;4999371;28;20516;-51
2022/07/07 09:06:58;;;;;;;3.58;0.85;;;;;;;17.84;100.00;102222.94;4998074;28;20108;-54
2022/07/07 09:09:37;;;;;;;9.13;1.17;;;;;;;17.96;100.00;102225.31;4981057;28;20033;-52
2022/07/07 09:12:04;;;;;;;5.15;0.95;;;;;;;17.98;100.00;102223.25;4999316;28;20338;-52
2022/07/07 09:14:42;;;;;;;5.50;0.80;;;;;;;18.00;100.00;102232.03;4999128;28;20045;-52
2022/07/07 09:17:27;;;;;;;7.45;1.10;;;;;;;17.91;100.00;102236.63;4998476;28;20041;-51
2022/07/07 09:20:08;;;;;;;5.75;1.10;;;;;;;17.87;100.00;102233.44;4999465;28;20041;-52
2022/07/07 09:22:53;;;;;;;6.55;0.70;;;;;;;17.81;100.00;102234.09;4995001;28;20265;-52
2022/07/07 09:25:22;;;;;;;4.30;0.80;;;;;;;17.67;100.00;102234.84;4997726;28;20409;-53
2022/07/07 09:27:58;;;;;;;9.52;1.10;;;;;;;17.68;100.00;102250.03;4998415;28;20022;-53
2022/07/07 09:30:40;;;;;;;4.68;0.88;;;;;;;17.84;100.00;102247.28;4984738;28;20030;-53
2022/07/07 09:33:08;;;;;;;6.60;1.02;;;;;;;17.94;100.00;102251.63;4990927;28;20045;-51
2022/07/07 09:38:23;;;;;;;4.05;1.15;;;;;;;18.52;100.00;102249.50;4998064;28;20147;-51
2022/07/07 09:40:53;;;;;;;7.90;0.90;;;;;;;18.43;100.00;102254.94;4997155;28;20025;-51
2022/07/07 09:43:20;;;;;;;6.30;0.93;;;;;;;18.16;100.00;102253.59;4997969;28;20116;-51
2022/07/07 09:46:05;;;;;;;6.13;1.00;;;;;;;18.09;100.00;102268.81;5000091;28;20484;-66
2022/07/07 09:48:32;;;;;;;8.90;0.80;;;;;;;18.27;100.00;102263.97;4998894;28;20473;-51
2022/07/07 09:51:23;;;;;;;13.02;1.38;;;;;;;18.60;100.00;102269.22;4997915;28;20105;-50
2022/07/07 09:53:56;;;;;;;5.47;0.93;;;;;;;18.94;100.00;102269.81;4997898;28;20097;-51
2022/07/07 09:56:23;;;;;;;3.05;0.60;;;;;;;19.12;97.07;102280.34;4996977;28;20538;-56
2022/07/07 09:58:49;;;;;;;2.97;0.70;;;;;;;19.14;94.75;102281.81;4998133;28;20775;-53
2022/07/07 10:01:17;;;;;;;3.38;0.80;;;;;;;19.09;95.19;102283.41;4997419;28;20060;-52
2022/07/07 10:03:42;;;;;;;4.55;0.55;;;;;;;19.00;96.63;102294.31;4998424;28;20460;-52
2022/07/07 10:06:09;;;;;;;6.80;0.80;;;;;;;18.89;96.87;102299.31;4998961;28;20055;-52
2022/07/07 10:08:41;;;;;;;3.72;0.90;;;;;;;18.55;98.60;102300.50;4997905;28;20545;-50
2022/07/07 10:11:08;;;;;;;;;;;;;;;18.43;99.31;102294.66;4997556;28;20049;-51
2022/07/07 10:13:37;;;;;;;2.78;1.15;;;;;;;18.01;100.00;102306.72;4996362;28;19933;-52
2022/07/07 10:16:02;;;;;;;5.90;1.17;;;;;;;17.79;100.00;102306.41;4998119;28;20366;-50
2022/07/07 10:18:28;;;;;;;3.90;0.82;;;;;;;17.73;100.00;102317.91;4997491;28;20036;-52
2022/07/07 10:20:53;;;;;;;5.03;1.08;;;;;;;17.78;100.00;102307.41;4993129;28;20023;-48
2022/07/07 10:23:19;;;;;;;2.63;0.90;;;;;;;17.83;100.00;102323.94;4997509;28;20045;-52
2022/07/07 10:26:01;;;;;;;6.85;1.00;;;;;;;18.20;100.00;102308.97;4997341;28;20065;-51
2022/07/07 10:28:56;;;;;;;3.95;1.05;;;;;;;18.68;100.00;102311.59;4978564;28;20687;-52
2022/07/07 10:31:23;;;;;;;4.38;1.00;;;;;;;18.98;100.00;102318.03;4997502;28;20097;-54
2022/07/07 10:34:10;;;;;;;6.93;1.15;;;;;;;19.18;100.00;102320.25;4998387;28;20037;-53
2022/07/07 10:36:58;;;;;;;2.40;0.73;;;;;;;19.12;97.79;102326.38;4980105;28;20827;-50
2022/07/07 10:39:25;;;;;;;4.72;1.00;;;;;;;18.85;97.76;102319.66;4996102;28;20508;-51
2022/07/07 10:42:17;;;;;;;3.95;0.98;;;;;;;18.66;100.00;102337.16;4997328;28;20021;-48
2022/07/07 10:44:49;;;;;;;3.70;1.05;;;;;;;18.37;100.00;102339.50;4997082;28;20083;-50
2022/07/07 10:47:17;;;;;;;4.60;0.85;;;;;;;18.19;100.00;102347.03;4997284;28;20034;-53
2022/07/07 10:49:51;;;;;;;4.63;0.95;;;;;;;18.19;100.00;102357.84;4997718;28;20346;-52
2022/07/07 10:52:22;;;;;;;4.22;0.90;;;;;;;18.19;100.00;102355.97;4997447;28;20117;-52
2022/07/07 10:54:50;;;;;;;;;;;;;;;18.44;100.00;102354.00;4997251;28;20057;-52
2022/07/07 10:57:23;;;;;;;7.10;0.90;;;;;;;18.72;100.00;102360.78;4997895;28;19996;-52
2022/07/07 10:59:59;;;;;;;4.10;0.90;;;;;;;18.87;100.00;102364.44;5006840;28;20030;-52
2022/07/07 11:02:32;;;;;;;7.07;0.88;;;;;;;18.97;100.00;102358.81;5007076;28;20065;-51
2022/07/07 11:04:58;;;;;;;9.02;1.02;;;;;;;18.95;100.00;102367.09;4996843;28;20129;-52
2022/07/07 11:07:24;;;;;;;6.13;1.42;;;;;;;19.00;100.00;102364.69;5005815;28;20337;-54
2022/07/07 11:10:08;;;;;;;3.53;1.13;;;;;;;18.80;100.00;102372.44;4995575;28;20030;-51
2022/07/07 11:12:39;;;;;;;3.05;0.93;;;;;;;18.56;100.00;102370.69;4996727;28;20025;-51
2022/07/07 11:15:22;;;;;;;4.70;1.25;;;;;;;18.29;100.00;102385.50;4995987;28;20029;-52
2022/07/07 11:17:48;;;;;;;7.35;1.38;;;;;;;18.15;100.00;102391.66;4997291;28;20034;-52
2022/07/07 11:20:15;;;;;;;8.15;1.52;;;;;;;18.19;100.00;102388.41;4997023;28;20504;-51